tititudorancea.com
Station Historical Data
Daily Summary for March 9, 2019 Units:  Metric    English   Both
« Previous Day
Next Day »
Daily Weekly Monthly Yearly Custom
  High: Low: Average:
Temperature: -17.8 °C 9.4 °C 19.2 °C
Dew Point: -17.8 °C 6.3 °C 8.2 °C
Humidity: Humidity % 32 % 51 %
Wind Speed: 0 km/h 0 km/h 8 km/h
Wind Gust: 0 km/h - -
Wind:- - SSW
Pressure: 0 hPa 1013.1 hPa -
Precipitation: 0 mm    
Historical Graphs
 
 
Ararat weather Find more about Weather in Ararat, AU


 



 


Tabular Data for March 9, 2019
Time Temperature Dew Point Pressure Wind Wind Speed Wind Gust Humidity Rainfall Rate (Hourly)
-17.8 °C -17.8 °C 0 hPa Calm     Humidity % 0 mm
00:04 17.1 °C 6.6 °C 1016.1 hPa SSE 11.1 km/h 9.5 km/h 50 % 0 mm
00:09 17.1 °C 6.6 °C 1016.1 hPa SSE 13 km/h 7.7 km/h 50 % 0 mm
00:14 17 °C 6.8 °C 1016.1 hPa SSE 9.7 km/h 8.7 km/h 51 % 0 mm
00:19 16.9 °C 6.7 °C 1016.1 hPa SSE 11.1 km/h 6.4 km/h 51 % 0 mm
00:24 16.9 °C 6.7 °C 1016.1 hPa SSE 13 km/h 10.8 km/h 51 % 0 mm
00:29 16.9 °C 6.7 °C 1016.1 hPa SSE 14.8 km/h 8.2 km/h 51 % 0 mm
00:34 16.9 °C 6.7 °C 1016.1 hPa SSE 7.4 km/h 3.7 km/h 51 % 0 mm
00:39 16.8 °C 6.6 °C 1016.1 hPa SSE 8 km/h 7.2 km/h 51 % 0 mm
00:44 16.7 °C 6.8 °C 1015.8 hPa SSE 7.4 km/h 7.1 km/h 52 % 0 mm
00:49 16.6 °C 6.7 °C 1015.8 hPa SSE 9.7 km/h 6.8 km/h 52 % 0 mm
00:54 16.4 °C 6.8 °C 1015.8 hPa SSE 9.3 km/h 6.8 km/h 53 % 0 mm
00:59 16.3 °C 6.7 °C 1015.8 hPa SSE 7.4 km/h 5.8 km/h 53 % 0 mm
01:04 16.2 °C 6.9 °C 1015.8 hPa SSE 8 km/h 5.3 km/h 54 % 0 mm
01:09 16.2 °C 6.9 °C 1015.8 hPa SSE 11.1 km/h 8.2 km/h 54 % 0 mm
01:14 16.2 °C 6.9 °C 1015.8 hPa SSE 13 km/h 9.3 km/h 54 % 0 mm
01:19 16.2 °C 6.8 °C 1015.8 hPa SSE 13 km/h 8.2 km/h 54 % 0 mm
01:24 16.1 °C 7.1 °C 1015.8 hPa SSE 9.7 km/h 7.6 km/h 55 % 0 mm
01:29 16 °C 6.9 °C 1015.8 hPa SSE 9.3 km/h 7.1 km/h 55 % 0 mm
01:34 15.9 °C 6.9 °C 1015.8 hPa SSE 9.3 km/h 5.8 km/h 55 % 0 mm
01:39 15.9 °C 6.8 °C 1015.8 hPa SSE 7.4 km/h 6.4 km/h 55 % 0 mm
01:44 15.8 °C 7.1 °C 1015.8 hPa SSE 5.6 km/h 3.2 km/h 56 % 0 mm
01:49 15.8 °C 7.1 °C 1015.8 hPa SSE 9.3 km/h 8.7 km/h 56 % 0 mm
01:54 15.8 °C 7 °C 1015.8 hPa SSE 9.3 km/h 6.4 km/h 56 % 0 mm
01:59 15.7 °C 6.9 °C 1015.8 hPa SSE 11.1 km/h 6.9 km/h 56 % 0 mm
02:04 15.7 °C 7.2 °C 1015.8 hPa SSE 9.3 km/h 6.6 km/h 57 % 0 mm
02:09 15.6 °C 7.1 °C 1015.8 hPa SSE 7.4 km/h 4.2 km/h 57 % 0 mm
02:14 15.5 °C 7 °C 1015.5 hPa SSE 7.4 km/h 6.6 km/h 57 % 0 mm
02:19 15.4 °C 7.2 °C 1015.8 hPa SSE 9.3 km/h 7.4 km/h 58 % 0 mm
02:24 15.3 °C 7.1 °C 1015.5 hPa SSE 8 km/h 7.6 km/h 58 % 0 mm
02:29 15.2 °C 7 °C 1015.5 hPa SSE 5.6 km/h 2.3 km/h 58 % 0 mm
02:34 15.2 °C 6.9 °C 1015.5 hPa SSE 5.6 km/h 1.8 km/h 58 % 0 mm
02:39 15.1 °C 6.9 °C 1015.5 hPa SSE 3.7 km/h 2.7 km/h 58 % 0 mm
02:44 15 °C 6.8 °C 1015.5 hPa SSE 8 km/h 7.1 km/h 58 % 0 mm
02:49 14.9 °C 6.9 °C 1015.1 hPa SSE 8 km/h 2.9 km/h 59 % 0 mm
02:54 14.8 °C 6.8 °C 1015.1 hPa SSE 8 km/h 5.8 km/h 59 % 0 mm
02:59 14.7 °C 6.8 °C 1015.1 hPa SSE 3.7 km/h 2.9 km/h 59 % 0 mm
03:03 14.7 °C 6.7 °C 1015.1 hPa SSE 5.6 km/h 5.3 km/h 59 % 0 mm
03:09 14.6 °C 6.9 °C 1015.1 hPa SSE 5.6 km/h 2.9 km/h 60 % 0 mm
03:14 14.6 °C 6.9 °C 1015.1 hPa SSE 5.6 km/h 3.4 km/h 60 % 0 mm
03:19 14.4 °C 6.9 °C 1015.1 hPa SSE 7.4 km/h 6 km/h 61 % 0 mm
03:24 14.3 °C 6.8 °C 1015.1 hPa SSE 9.3 km/h 6.4 km/h 61 % 0 mm
03:29 14.2 °C 7.1 °C 1015.1 hPa SSE 7.4 km/h 6.6 km/h 62 % 0 mm
03:34 14.2 °C 7 °C 1015.1 hPa SSE 11.1 km/h 9.8 km/h 62 % 0 mm
03:39 14.1 °C 7.2 °C 1015.1 hPa SSE 11.1 km/h 6.4 km/h 63 % 0 mm
03:44 14.2 °C 7.2 °C 1015.1 hPa SSE 14.8 km/h 10 km/h 63 % 0 mm
03:49 14.1 °C 7.2 °C 1015.1 hPa SSE 14.8 km/h 10.6 km/h 63 % 0 mm
03:54 14.1 °C 7.2 °C 1015.1 hPa SSE 9.3 km/h 7.7 km/h 63 % 0 mm
03:59 14.1 °C 7.3 °C 1015.1 hPa SSE 9.3 km/h 8.4 km/h 64 % 0 mm
04:04 14 °C 7.3 °C 1015.1 hPa SSE 9.7 km/h 6.3 km/h 64 % 0 mm
04:09 13.9 °C 7.2 °C 1015.1 hPa SSE 5.6 km/h 3.4 km/h 64 % 0 mm
04:14 13.9 °C 7.2 °C 1015.1 hPa SSE 6.4 km/h 4.2 km/h 64 % 0 mm
04:19 13.8 °C 7.4 °C 1015.1 hPa SSE 3.7 km/h 2.7 km/h 65 % 0 mm
04:24 13.8 °C 7.3 °C 1015.1 hPa SSE 7.4 km/h 4.8 km/h 65 % 0 mm
04:29 13.7 °C 7.2 °C 1015.1 hPa SSE 6.4 km/h 4.3 km/h 65 % 0 mm
04:34 13.6 °C 7.3 °C 1015.5 hPa SSE 5.6 km/h 1.8 km/h 66 % 0 mm
04:39 13.5 °C 7.3 °C 1015.5 hPa SSE 8 km/h 4.7 km/h 66 % 0 mm
04:44 13.4 °C 7.4 °C 1015.1 hPa North 7.4 km/h 6 km/h 67 % 0 mm
04:49 13.4 °C 7.4 °C 1015.1 hPa SSE 5.6 km/h 5.6 km/h 67 % 0 mm
04:54 13.3 °C 7.5 °C 1015.1 hPa SSE 5.6 km/h 3.9 km/h 68 % 0 mm
04:59 13.3 °C 7.5 °C 1015.1 hPa SSE 5.6 km/h 3.9 km/h 68 % 0 mm
05:04 13.2 °C 7.7 °C 1015.1 hPa SSE 7.4 km/h 1.4 km/h 69 % 0 mm
05:09 13.1 °C 7.6 °C 1015.1 hPa SSE 6.4 km/h 3.9 km/h 69 % 0 mm
05:14 13 °C 7.4 °C 1015.1 hPa SSE 7.4 km/h 6.1 km/h 69 % 0 mm
05:19 12.9 °C 7.6 °C 1015.1 hPa SSE 5.6 km/h 3.7 km/h 70 % 0 mm
05:24 12.8 °C 7.4 °C 1015.5 hPa SSE 7.4 km/h 3.7 km/h 70 % 0 mm
05:29 12.7 °C 7.4 °C 1015.5 hPa SSE 5.6 km/h 2.1 km/h 70 % 0 mm
05:34 12.6 °C 7.5 °C 1015.5 hPa SSE 3.7 km/h 3.2 km/h 71 % 0 mm
05:39 12.5 °C 7.4 °C 1015.5 hPa SSE 3.7 km/h 1.1 km/h 71 % 0 mm
05:44 12.3 °C 7.2 °C 1015.5 hPa Calm     71 % 0 mm
05:49 12.2 °C 7.1 °C 1015.5 hPa Calm     71 % 0 mm
05:54 12 °C 6.9 °C 1015.5 hPa Calm     71 % 0 mm
05:59 11.8 °C 6.7 °C 1015.5 hPa Calm     71 % 0 mm
06:04 11.6 °C 6.7 °C 1015.5 hPa Calm     72 % 0 mm
06:09 11.4 °C 6.5 °C 1015.5 hPa Calm     72 % 0 mm
06:14 11.2 °C 6.6 °C 1015.5 hPa Calm     73 % 0 mm
06:19 11 °C 6.3 °C 1015.5 hPa Calm     73 % 0 mm
06:24 10.8 °C 6.4 °C 1015.8 hPa Calm     74 % 0 mm
06:29 10.7 °C 6.4 °C 1015.8 hPa Calm     75 % 0 mm
06:34 10.5 °C 6.4 °C 1015.8 hPa Calm     76 % 0 mm
06:39 10.4 °C 6.3 °C 1015.8 hPa Calm     76 % 0 mm
06:44 10.2 °C 6.4 °C 1015.8 hPa Calm     77 % 0 mm
06:49 10.1 °C 6.4 °C 1015.8 hPa Calm     78 % 0 mm
06:54 10 °C 6.5 °C 1015.8 hPa Calm     79 % 0 mm
06:59 9.9 °C 6.4 °C 1015.8 hPa Calm     79 % 0 mm
07:04 9.9 °C 6.6 °C 1015.8 hPa SSE 3.2 km/h 2.1 km/h 80 % 0 mm
07:09 9.8 °C 6.7 °C 1015.8 hPa Calm     81 % 0 mm
07:14 9.8 °C 6.7 °C 1016.1 hPa Calm     81 % 0 mm
07:19 9.8 °C 6.8 °C 1016.1 hPa Calm     82 % 0 mm
07:24 9.7 °C 6.6 °C 1016.1 hPa SSE 3.2 km/h 1.4 km/h 81 % 0 mm
07:29 9.6 °C 6.7 °C 1016.1 hPa SSE 1.9 km/h 1.4 km/h 82 % 0 mm
07:34 9.5 °C 6.6 °C 1016.1 hPa SSE 3.7 km/h 2.4 km/h 82 % 0 mm
07:39 9.5 °C 6.6 °C 1016.5 hPa Calm     82 % 0 mm
07:44 9.4 °C 6.5 °C 1016.5 hPa Calm     82 % 0 mm
07:49 9.4 °C 6.7 °C 1016.5 hPa Calm     83 % 0 mm
07:54 9.6 °C 7.1 °C 1016.5 hPa Calm   0.2 km/h 84 % 0 mm
07:59 10.1 °C 7.7 °C 1016.5 hPa Calm     85 % 0 mm
08:04 10.6 °C 8 °C 1016.5 hPa Calm     84 % 0 mm
08:09 11.1 °C 8.3 °C 1016.8 hPa Calm     83 % 0 mm
08:14 11.8 °C 8.8 °C 1016.5 hPa SSE 1.9 km/h   82 % 0 mm
08:19 12.3 °C 9 °C 1016.8 hPa Calm     80 % 0 mm
08:24 12.9 °C 9.2 °C 1016.8 hPa Calm     78 % 0 mm
08:29 13.3 °C 9.1 °C 1016.8 hPa Calm     76 % 0 mm
08:34 13.6 °C 9 °C 1016.8 hPa SSE 1.9 km/h   74 % 0 mm
08:39 13.8 °C 9.4 °C 1016.8 hPa SSE 3.7 km/h 2.4 km/h 75 % 0 mm
08:44 14.2 °C 9.7 °C 1016.8 hPa SSE 5.6 km/h 5.6 km/h 74 % 0 mm
08:49 14.6 °C 9.8 °C 1016.8 hPa SSE 5.6 km/h 3.4 km/h 73 % 0 mm
08:54 15 °C 10 °C 1016.8 hPa SSE 6.4 km/h 4.3 km/h 72 % 0 mm
08:59 15.2 °C 10 °C 1016.8 hPa SSE 7.4 km/h 4.2 km/h 71 % 0 mm
09:04 15.6 °C 10.5 °C 1016.5 hPa SSE 3.7 km/h 3.2 km/h 72 % 0 mm
09:09 16 °C 10.6 °C 1016.8 hPa SSE 8 km/h 6.3 km/h 70 % 0 mm
09:14 16.2 °C 10.3 °C 1016.8 hPa SSE 9.3 km/h 5.8 km/h 68 % 0 mm
09:19 16.2 °C 10.3 °C 1016.8 hPa SSE 7.4 km/h 2.7 km/h 68 % 0 mm
09:24 16.1 °C 10.2 °C 1016.8 hPa SSE 6.4 km/h 4 km/h 68 % 0 mm
09:29 15.9 °C 9.8 °C 1016.8 hPa SSE 9.3 km/h 7.7 km/h 67 % 0 mm
09:34 16.1 °C 10.2 °C 1016.8 hPa SSE 6.4 km/h 4.3 km/h 68 % 0 mm
09:39 16.5 °C 10.1 °C 1016.8 hPa SSE 8 km/h 1.8 km/h 66 % 0 mm
09:44 17 °C 10.4 °C 1016.8 hPa SSE 3.7 km/h 3.2 km/h 65 % 0 mm
09:49 17.2 °C 9.8 °C 1016.8 hPa SSE 5.6 km/h 2.6 km/h 62 % 0 mm
09:54 17.4 °C 9.8 °C 1017.2 hPa SSE 7.4 km/h 6.4 km/h 61 % 0 mm
09:59 17.8 °C 9.4 °C 1017.2 hPa SSE 7.4 km/h 5.1 km/h 58 % 0 mm
10:04 17.8 °C 9.7 °C 1016.8 hPa SSE 8 km/h 8.4 km/h 59 % 0 mm
10:09 18.1 °C 9.4 °C 1017.2 hPa SSE 5.6 km/h 2.1 km/h 57 % 0 mm
10:14 18.5 °C 9.6 °C 1017.2 hPa SSE 9.7 km/h 3.7 km/h 56 % 0 mm
10:19 18.8 °C 9.6 °C 1016.8 hPa SSE 11.3 km/h 9.5 km/h 55 % 0 mm
10:24 19.1 °C 9.6 °C 1017.2 hPa SSE 9.7 km/h 7.4 km/h 54 % 0 mm
10:29 19.4 °C 9.3 °C 1017.2 hPa SSE 7.4 km/h 2.9 km/h 52 % 0 mm
10:34 19.9 °C 9.5 °C 1016.8 hPa SSE 11.1 km/h 7.7 km/h 51 % 0 mm
10:39 20.2 °C 8.8 °C 1017.2 hPa SSE 11.1 km/h 7.2 km/h 48 % 0 mm
10:44 20.3 °C 8.9 °C 1017.2 hPa SSE 11.1 km/h 9.2 km/h 48 % 0 mm
10:49 20.2 °C 8.8 °C 1017.2 hPa SSE 13 km/h 4.8 km/h 48 % 0 mm
10:54 20.1 °C 9.3 °C 1016.8 hPa SSE 7.4 km/h 7.4 km/h 50 % 0 mm
10:59 20.4 °C 8.7 °C 1017.2 hPa SSE 9.7 km/h 9.8 km/h 47 % 0 mm
11:04 20.9 °C 9.2 °C 1017.2 hPa SSE 14.5 km/h 8 km/h 47 % 0 mm
11:09 21.2 °C 9.1 °C 1017.2 hPa SSE 9.7 km/h 6.3 km/h 46 % 0 mm
11:14 21.5 °C 9.1 °C 1017.2 hPa SSE 9.7 km/h 5.6 km/h 45 % 0 mm
11:19 21.4 °C 8.6 °C 1017.2 hPa SSE 9.3 km/h 5.5 km/h 44 % 0 mm
11:24 21.4 °C 7.9 °C 1017.2 hPa SSE 14.8 km/h 10.9 km/h 42 % 0 mm
11:29 21.2 °C 8.1 °C 1016.8 hPa SSE 5.6 km/h 2.3 km/h 43 % 0 mm
11:34 21.5 °C 8.1 °C 1016.8 hPa SSE 11.1 km/h 9.8 km/h 42 % 0 mm
11:39 21.8 °C 7.9 °C 1016.8 hPa SSE 6.4 km/h 5.6 km/h 41 % 0 mm
11:44 21.8 °C 7.9 °C 1016.8 hPa South 14.8 km/h 4.7 km/h 41 % 0 mm
11:49 21.9 °C 7.7 °C 1016.8 hPa North 7.4 km/h 0.6 km/h 40 % 0 mm
11:54 22.3 °C 8.1 °C 1016.8 hPa South 14.5 km/h 10.1 km/h 40 % 0 mm
11:59 22.3 °C 8.1 °C 1016.8 hPa South 9.3 km/h 4.8 km/h 40 % 0 mm
12:04 22.4 °C 8.2 °C 1016.8 hPa South 7.4 km/h 6.1 km/h 40 % 0 mm
12:09 23.1 °C 8 °C 1016.5 hPa South 6.4 km/h 1.9 km/h 38 % 0 mm
12:14 23.3 °C 7.8 °C 1016.5 hPa South 9.7 km/h 9.5 km/h 37 % 0 mm
12:19 23 °C 7.9 °C 1016.5 hPa South 13 km/h 8 km/h 38 % 0 mm
12:24 22.9 °C 7.9 °C 1016.5 hPa South 14.8 km/h 9.8 km/h 38 % 0 mm
12:29 22.9 °C 8.2 °C 1016.5 hPa South 11.1 km/h 3.2 km/h 39 % 0 mm
12:34 23.3 °C 8.6 °C 1016.5 hPa South 11.1 km/h 7.1 km/h 39 % 0 mm
12:39 23.6 °C 8.4 °C 1016.5 hPa SW 14.8 km/h 5.8 km/h 38 % 0 mm
12:44 23.7 °C 8.5 °C 1016.1 hPa SW 8 km/h 4.7 km/h 38 % 0 mm
12:49 23.5 °C 8.3 °C 1016.1 hPa SSW 9.3 km/h 2.3 km/h 38 % 0 mm
12:54 23.8 °C 8.6 °C 1016.1 hPa SSW 8 km/h 5.1 km/h 38 % 0 mm
12:59 24 °C 8.4 °C 1015.8 hPa SW 7.4 km/h 3.1 km/h 37 % 0 mm
13:04 24.2 °C 8.9 °C 1015.8 hPa SW 11.3 km/h 12.2 km/h 38 % 0 mm
13:09 24.1 °C 8.5 °C 1015.8 hPa North 18.5 km/h 9.3 km/h 37 % 0 mm
13:14 23.9 °C 8.7 °C 1015.8 hPa WSW 14.8 km/h 6.6 km/h 38 % 0 mm
13:19 24 °C 8.8 °C 1015.8 hPa SW 11.1 km/h 5.5 km/h 38 % 0 mm
13:24 24.3 °C 9.1 °C 1015.8 hPa SW 5.6 km/h 2.1 km/h 38 % 0 mm
13:29 24.4 °C 8.8 °C 1015.8 hPa WSW 13 km/h 12.1 km/h 37 % 0 mm
13:34 24.4 °C 9.2 °C 1015.5 hPa WSW 16.1 km/h 12.4 km/h 38 % 0 mm
13:39 24.7 °C 9.1 °C 1015.5 hPa WSW 14.8 km/h 8.2 km/h 37 % 0 mm
13:44 24.8 °C 8.7 °C 1015.5 hPa WSW 9.3 km/h 2.9 km/h 36 % 0 mm
13:49 24.9 °C 9.2 °C 1015.5 hPa SW 16.7 km/h 9.7 km/h 37 % 0 mm
13:54 24.9 °C 8.8 °C 1015.5 hPa SW 9.3 km/h 5 km/h 36 % 0 mm
13:59 24.9 °C 8.8 °C 1015.5 hPa SW 7.4 km/h 7.6 km/h 36 % 0 mm
14:03 24.9 °C 9.2 °C 1015.1 hPa WSW 16.7 km/h 6.8 km/h 37 % 0 mm
14:09 25.1 °C 9 °C 1015.1 hPa North 14.8 km/h 11.7 km/h 36 % 0 mm
14:09 25.1 °C 9 °C 1015.1 hPa SW 14.8 km/h 11.7 km/h 36 % 0 mm
14:19 25.3 °C 9.2 °C 1015.1 hPa SW 14.8 km/h 14.8 km/h 36 % 0 mm
14:24 25.9 °C 9.3 °C 1015.1 hPa SW 11.3 km/h 10 km/h 35 % 0 mm
14:29 25.9 °C 9.3 °C 1015.1 hPa SW 13 km/h 8.5 km/h 35 % 0 mm
14:34 26.1 °C 9.8 °C 1015.1 hPa SSW 16.7 km/h 8.7 km/h 36 % 0 mm
14:39 25.9 °C 9.7 °C 1014.8 hPa South 18.5 km/h 8 km/h 36 % 0 mm
14:44 26.2 °C 9.6 °C 1014.8 hPa South 14.8 km/h 9.8 km/h 35 % 0 mm
14:49 25.8 °C 9.6 °C 1014.8 hPa SSW 16.7 km/h 13.2 km/h 36 % 0 mm
14:54 25.9 °C 9.3 °C 1014.8 hPa South 9.3 km/h 3.1 km/h 35 % 0 mm
14:59 26.2 °C 9.1 °C 1014.8 hPa South 13 km/h 6.8 km/h 34 % 0 mm
15:04 26.2 °C 9.5 °C 1014.8 hPa South 14.8 km/h 10.5 km/h 35 % 0 mm
15:09 25.9 °C 9.3 °C 1014.4 hPa SSW 18.5 km/h 10.9 km/h 35 % 0 mm
15:14 25.8 °C 9.6 °C 1014.4 hPa SSW 13 km/h 8 km/h 36 % 0 mm
15:19 26.2 °C 9.6 °C 1014.4 hPa South 11.1 km/h 9.8 km/h 35 % 0 mm
15:24 26.3 °C 9.2 °C 1014.4 hPa South 11.3 km/h 10.3 km/h 34 % 0 mm
15:29 26.4 °C 9.3 °C 1014.1 hPa South 14.5 km/h 11.1 km/h 34 % 0 mm
15:34 26.3 °C 9.6 °C 1014.4 hPa South 18.5 km/h 13 km/h 35 % 0 mm
15:39 26.3 °C 9.6 °C 1014.1 hPa South 18.5 km/h 9.7 km/h 35 % 0 mm
15:44 26.6 °C 9.4 °C 1014.1 hPa South 9.3 km/h 6.4 km/h 34 % 0 mm
15:49 27.1 °C 9.9 °C 1014.1 hPa SSW 11.3 km/h 10.6 km/h 34 % 0 mm
15:54 27 °C 9.8 °C 1014.1 hPa North 7.4 km/h 2.6 km/h 34 % 0 mm
15:59 27.1 °C 9.4 °C 1014.1 hPa SSW 14.8 km/h 7.1 km/h 33 % 0 mm
16:04 26.9 °C 9.7 °C 1014.1 hPa SSW 13 km/h 9.7 km/h 34 % 0 mm
16:09 26.7 °C 9.6 °C 1014.1 hPa SSW 18.5 km/h 9.8 km/h 34 % 0 mm
16:14 26.8 °C 9.7 °C 1013.8 hPa South 9.3 km/h 1 km/h 34 % 0 mm
16:19 26.9 °C 9.3 °C 1013.8 hPa South 14.8 km/h 6.3 km/h 33 % 0 mm
16:24 27.1 °C 9.4 °C 1013.8 hPa North 11.1 km/h 5 km/h 33 % 0 mm
16:24 27.1 °C 9.4 °C 1013.8 hPa South 11.1 km/h 4.5 km/h 33 % 0 mm
16:34 27.1 °C 9.4 °C 1013.8 hPa SSW 18.5 km/h 12.1 km/h 33 % 0 mm
16:39 26.7 °C 9.5 °C 1013.8 hPa SW 16.7 km/h 7.1 km/h 34 % 0 mm
16:44 27 °C 9.3 °C 1013.8 hPa West 13 km/h 8.2 km/h 33 % 0 mm
16:49 27.1 °C 9.4 °C 1013.8 hPa South 16.7 km/h 11.1 km/h 33 % 0 mm
16:54 26.9 °C 9.3 °C 1013.4 hPa South 9.3 km/h 4.8 km/h 33 % 0 mm
16:59 26.7 °C 9.6 °C 1013.4 hPa South 5.6 km/h 4 km/h 34 % 0 mm
17:04 26.8 °C 9.7 °C 1013.4 hPa South 8 km/h 6.6 km/h 34 % 0 mm
17:09 27 °C 9.3 °C 1013.4 hPa South 16.7 km/h 7.1 km/h 33 % 0 mm
17:14 27 °C 9.3 °C 1013.4 hPa SSE 9.3 km/h 2.9 km/h 33 % 0 mm
17:19 27 °C 9.3 °C 1013.4 hPa SSE 11.1 km/h 6.3 km/h 33 % 0 mm
17:24 26.9 °C 9.3 °C 1013.4 hPa South 14.8 km/h 11.9 km/h 33 % 0 mm
17:29 26.7 °C 9.6 °C 1013.1 hPa South 14.8 km/h 11.1 km/h 34 % 0 mm
17:34 26.9 °C 9.3 °C 1013.1 hPa South 11.1 km/h 8 km/h 33 % 0 mm
17:39 26.9 °C 9.3 °C 1013.4 hPa South 8 km/h 4.8 km/h 33 % 0 mm
17:44 27.2 °C 9.5 °C 1013.4 hPa South 7.4 km/h 2.3 km/h 33 % 0 mm
17:49 27.4 °C 9.2 °C 1013.4 hPa North 11.1 km/h 8.9 km/h 32 % 0 mm
17:54 27.3 °C 9.2 °C 1013.4 hPa SSW 14.8 km/h 9.5 km/h 32 % 0 mm
17:59 27.1 °C 9 °C 1013.4 hPa North 14.8 km/h 10 km/h 32 % 0 mm
18:04 26.7 °C 9.1 °C 1013.4 hPa SSW 9.3 km/h 7.2 km/h 33 % 0 mm
18:09 26.7 °C 9.1 °C 1013.4 hPa SSW 11.1 km/h 5.8 km/h 33 % 0 mm
18:14 26.4 °C 8.9 °C 1013.8 hPa SSW 14.8 km/h 8.2 km/h 33 % 0 mm
18:19 26.2 °C 9.1 °C 1013.8 hPa North 18.5 km/h 13.5 km/h 34 % 0 mm
18:24 26.3 °C 9.2 °C 1013.8 hPa SW 5.6 km/h 3.5 km/h 34 % 0 mm
18:29 26.1 °C 9 °C 1013.8 hPa SSW 16.7 km/h 6.9 km/h 34 % 0 mm
18:34 26 °C 8.9 °C 1013.8 hPa SSW 5.6 km/h 2.1 km/h 34 % 0 mm
18:39 25.9 °C 8.9 °C 1013.8 hPa SSW 16.7 km/h 8.4 km/h 34 % 0 mm
18:44 26.1 °C 8.9 °C 1013.8 hPa SSW 9.3 km/h 3.5 km/h 34 % 0 mm
18:49 26.2 °C 9.1 °C 1013.8 hPa SSW 16.1 km/h 6.3 km/h 34 % 0 mm
18:54 26.2 °C 9.1 °C 1013.8 hPa SSW 14.5 km/h 7.2 km/h 34 % 0 mm
18:59 26.1 °C 8.6 °C 1013.8 hPa SSW 13 km/h 9.3 km/h 33 % 0 mm
19:04 26 °C 8.5 °C 1013.8 hPa SSW 11.1 km/h 7.6 km/h 33 % 0 mm
19:09 25.9 °C 8.8 °C 1013.8 hPa North 13 km/h 10.8 km/h 34 % 0 mm
19:14 25.7 °C 8.2 °C 1013.8 hPa SSW 16.1 km/h 10.1 km/h 33 % 0 mm
19:19 25.6 °C 8.6 °C 1013.8 hPa SSW 14.8 km/h 6.9 km/h 34 % 0 mm
19:24 25.5 °C 8.5 °C 1013.8 hPa SSW 13 km/h 9.5 km/h 34 % 0 mm
19:29 25.3 °C 8.3 °C 1013.8 hPa SSW 11.1 km/h 6 km/h 34 % 0 mm
19:34 25.2 °C 8.6 °C 1013.8 hPa SSW 6.4 km/h 5.3 km/h 35 % 0 mm
19:39 24.9 °C 8.4 °C 1013.8 hPa SSW 5.6 km/h 6.4 km/h 35 % 0 mm
19:44 24.7 °C 8.7 °C 1013.8 hPa SSW 5.6 km/h 3.5 km/h 36 % 0 mm
19:49 24.4 °C 8.4 °C 1013.8 hPa SSW 11.1 km/h 7.7 km/h 36 % 0 mm
19:54 24.2 °C 8.6 °C 1013.8 hPa SSW 5.6 km/h 5.6 km/h 37 % 0 mm
19:59 24.1 °C 8.4 °C 1013.8 hPa SSW 5.6 km/h 2.9 km/h 37 % 0 mm
20:04 23.9 °C 8.3 °C 1013.8 hPa SSW 4.8 km/h 3.9 km/h 37 % 0 mm
20:09 23.6 °C 8.4 °C 1013.8 hPa North 5.6 km/h 4.7 km/h 38 % 0 mm
20:14 23.3 °C 8.6 °C 1013.8 hPa SSW 7.4 km/h 5.3 km/h 39 % 0 mm
20:19 23.1 °C 8.3 °C 1013.8 hPa SSW 5.6 km/h 4 km/h 39 % 0 mm
20:24 22.8 °C 8.5 °C 1014.1 hPa North 5.6 km/h 4.2 km/h 40 % 0 mm
20:29 22.6 °C 8.3 °C 1014.1 hPa North 5.6 km/h 3.1 km/h 40 % 0 mm
20:34 22.4 °C 8.6 °C 1014.1 hPa SSW 5.6 km/h 3.4 km/h 41 % 0 mm
20:39 22.3 °C 8.4 °C 1014.1 hPa SSW 3.7 km/h 0.8 km/h 41 % 0 mm
20:44 22.2 °C 8.3 °C 1014.1 hPa SSW 3.2 km/h 2.9 km/h 41 % 0 mm
20:49 22 °C 8.1 °C 1014.1 hPa Calm     41 % 0 mm
20:54 21.8 °C 8.3 °C 1014.1 hPa SSW 3.7 km/h   42 % 0 mm
20:59 21.5 °C 8.4 °C 1014.1 hPa North 3.7 km/h 1.8 km/h 43 % 0 mm
21:04 21.3 °C 8.2 °C 1014.1 hPa SSW 3.7 km/h 1.8 km/h 43 % 0 mm
21:09 20.9 °C 8.2 °C 1014.4 hPa SSW 5.6 km/h 3.4 km/h 44 % 0 mm
21:14 20.8 °C 8.1 °C 1014.4 hPa SSW 11.3 km/h 8 km/h 44 % 0 mm
21:19 20.9 °C 8.2 °C 1014.4 hPa SSW 5.6 km/h 7.2 km/h 44 % 0 mm
21:24 20.9 °C 8.6 °C 1014.4 hPa SSW 5.6 km/h 2.1 km/h 45 % 0 mm
21:29 20.8 °C 8.4 °C 1014.4 hPa SSW 8 km/h 4.8 km/h 45 % 0 mm
21:34 20.7 °C 8.7 °C 1014.4 hPa SSW 5.6 km/h 3.7 km/h 46 % 0 mm
21:39 20.6 °C 8.6 °C 1014.4 hPa SSW 5.6 km/h 3.1 km/h 46 % 0 mm
21:44 20.4 °C 8.7 °C 1014.4 hPa SSW 5.6 km/h 2.6 km/h 47 % 0 mm
21:49 20.3 °C 8.6 °C 1014.1 hPa SSW 4.8 km/h 2.7 km/h 47 % 0 mm
21:54 20.1 °C 8.8 °C 1014.1 hPa SSW 3.7 km/h 3.2 km/h 48 % 0 mm
21:57 20.1 °C 8.7 °C 1014.4 hPa SSW 3.7 km/h 1.9 km/h 48 % 0 mm
22:09 19.6 °C 8.9 °C 1014.4 hPa Calm     50 % 0 mm
22:14 19.4 °C 8.7 °C 1014.4 hPa Calm     50 % 0 mm
22:19 19.2 °C 8.8 °C 1014.4 hPa SSW 5.6 km/h   51 % 0 mm
22:24 19.1 °C 9 °C 1014.1 hPa SSW 5.6 km/h 1.9 km/h 52 % 0 mm
22:29 19.1 °C 9 °C 1014.1 hPa Calm     52 % 0 mm
22:34 18.8 °C 8.7 °C 1014.1 hPa SSW 3.7 km/h 2.7 km/h 52 % 0 mm
22:39 18.6 °C 9.1 °C 1014.1 hPa SSW 5.6 km/h 3.4 km/h 54 % 0 mm
22:44 18.8 °C 9.3 °C 1014.1 hPa SSW 5.6 km/h 1.3 km/h 54 % 0 mm
22:49 18.7 °C 9.2 °C 1014.1 hPa SSW 1.9 km/h 1.9 km/h 54 % 0 mm
22:54 18.4 °C 8.9 °C 1014.1 hPa SSW 4.8 km/h 3.9 km/h 54 % 0 mm
22:59 18.3 °C 9.3 °C 1014.1 hPa SSW 5.6 km/h 5.3 km/h 56 % 0 mm
23:04 18.3 °C 9.4 °C 1014.1 hPa SSW 5.6 km/h 2.6 km/h 56 % 0 mm
23:09 18.4 °C 9.4 °C 1014.1 hPa SSW 7.4 km/h 4 km/h 56 % 0 mm
23:14 18.3 °C 9.3 °C 1014.1 hPa SSW 3.7 km/h 2.4 km/h 56 % 0 mm
23:19 18.2 °C 9.5 °C 1014.4 hPa SSW 5.6 km/h 2.9 km/h 57 % 0 mm
23:24 18.1 °C 9.4 °C 1014.1 hPa SSW 4.8 km/h 2.1 km/h 57 % 0 mm
23:29 18 °C 9.3 °C 1014.4 hPa SSW 5.6 km/h 3.2 km/h 57 % 0 mm
23:34 17.9 °C 9.5 °C 1014.4 hPa SSW 5.6 km/h 1.6 km/h 58 % 0 mm
23:39 17.9 °C 9.5 °C 1014.1 hPa SSW 1.9 km/h 0.2 km/h 58 % 0 mm
23:44 17.7 °C 9.6 °C 1014.1 hPa SSW 3.7 km/h 3.9 km/h 59 % 0 mm
23:49 17.5 °C 9.7 °C 1014.1 hPa SSW 5.6 km/h 2.6 km/h 60 % 0 mm
23:54 17.4 °C 9.6 °C 1014.1 hPa SSW 1.9 km/h 0.5 km/h 60 % 0 mm
23:59 17.3 °C 9.4 °C 1014.1 hPa Calm     60 % 0 mm
Ararat Weather
Compliments of Weather Underground - 2.5 mb
Click here to send mail.


ABOUT

Live weather data from Ararat, Victoria, Australia, 3377
Data uploaded from Cumulus every 5 minutes to Weather Underground.
This site then downloads the raw data for formatting and display.
Metric and imperial data can be displayed. Graphs and historical data available.
Includes Sun and Moon times and rain image live from BOM.

Check out Ararat Weather on Facebook, Twitter and Google +

Help support ongoing costs by checking out the ads





Follow @AraratWeather